createdAt,value
2019-03-05T00:00:54.812Z,99352.02
2019-03-05T00:02:01.874Z,99348.20
2019-03-05T00:03:08.685Z,99354.52
2019-03-05T00:04:15.523Z,99359.56
2019-03-05T00:05:22.949Z,99358.22
2019-03-05T00:06:30.324Z,99367.13
2019-03-05T00:07:37.716Z,99353.53
2019-03-05T00:08:44.657Z,99360.68
2019-03-05T00:09:51.407Z,99368.31
2019-03-05T00:10:58.425Z,99370.48
2019-03-05T00:12:06.053Z,99366.22
2019-03-05T00:13:13.159Z,99366.22
2019-03-05T00:14:22.046Z,99370.82
2019-03-05T00:15:29.316Z,99367.00
2019-03-05T00:16:35.972Z,99367.00
2019-03-05T00:17:42.654Z,99371.23
2019-03-05T00:18:49.398Z,99362.73
2019-03-05T00:19:56.545Z,99366.55
2019-03-05T00:21:03.198Z,99367.41
2019-03-05T00:22:09.864Z,99374.05
2019-03-05T00:23:41.825Z,99372.74
2019-03-05T00:25:07.378Z,99366.38
2019-03-05T00:26:14.367Z,99365.34
2019-03-05T00:27:21.050Z,99368.39
2019-03-05T00:28:43.360Z,99369.25
2019-03-05T00:30:40.591Z,99373.08
2019-03-05T00:31:47.953Z,99372.12
2019-03-05T00:33:05.223Z,99377.22
2019-03-05T00:34:38.168Z,99378.41
2019-03-05T00:36:36.074Z,99387.69
2019-03-05T00:38:29.611Z,99381.23
2019-03-05T00:40:23.772Z,99393.14
2019-03-05T00:41:55.255Z,99389.78
2019-03-05T00:44:07.224Z,99384.23
2019-03-05T00:46:35.418Z,99399.96
2019-03-05T00:48:51.633Z,99393.19
2019-03-05T00:50:59.038Z,99397.91
2019-03-05T00:53:06.329Z,99401.77
2019-03-05T00:55:17.994Z,99403.33
2019-03-05T00:56:37.610Z,99409.20
2019-03-05T00:58:28.837Z,99409.66
2019-03-05T01:00:35.664Z,99407.16
2019-03-05T01:02:42.683Z,99411.02
2019-03-05T01:04:39.215Z,99407.59
2019-03-05T01:06:23.634Z,99414.41
2019-03-05T01:07:31.764Z,99406.78
2019-03-05T01:08:38.481Z,99418.56
2019-03-05T01:09:45.120Z,99416.06
2019-03-05T01:10:51.812Z,99414.87
2019-03-05T01:11:58.496Z,99418.65
2019-03-05T01:13:05.424Z,99421.97
2019-03-05T01:14:12.518Z,99419.84
2019-03-05T01:15:19.887Z,99424.52
2019-03-05T01:16:30.375Z,99419.88
2019-03-05T01:17:37.393Z,99422.30
2019-03-05T01:18:44.524Z,99426.45
2019-03-05T01:19:51.779Z,99428.55
2019-03-05T01:20:58.443Z,99426.48
2019-03-05T01:22:05.647Z,99436.26
2019-03-05T01:23:12.348Z,99436.67
2019-03-05T01:24:19.573Z,99429.94
2019-03-05T01:25:33.332Z,99433.84
2019-03-05T01:26:39.990Z,99438.44
2019-03-05T01:27:46.908Z,99437.62
2019-03-05T01:28:54.070Z,99430.72
2019-03-05T01:30:00.754Z,99440.45
2019-03-05T01:31:33.295Z,99442.63
2019-03-05T01:32:51.125Z,99438.84
2019-03-05T01:34:05.689Z,99437.70
2019-03-05T01:35:29.614Z,99446.57
2019-03-05T01:36:39.760Z,99442.27
2019-03-05T01:37:47.089Z,99438.48
2019-03-05T01:39:03.333Z,99451.63
2019-03-05T01:40:23.386Z,99452.07
2019-03-05T01:41:30.419Z,99449.08
2019-03-05T01:42:37.093Z,99454.62
2019-03-05T01:43:43.793Z,99456.75
2019-03-05T01:44:50.524Z,99449.20
2019-03-05T01:45:57.536Z,99448.05
2019-03-05T01:47:05.029Z,99450.97
2019-03-05T01:48:12.106Z,99454.87
2019-03-05T01:49:18.801Z,99455.31
2019-03-05T01:50:25.579Z,99455.31
2019-03-05T01:51:32.600Z,99454.87
2019-03-05T01:52:39.440Z,99463.78
2019-03-05T01:53:46.125Z,99466.77
2019-03-05T01:54:52.815Z,99460.90
2019-03-05T01:55:59.784Z,99462.17
2019-03-05T01:57:06.480Z,99464.80
2019-03-05T01:58:13.422Z,99461.72
2019-03-05T01:59:20.086Z,99464.72
2019-03-05T02:00:27.321Z,99464.76
2019-03-05T02:01:34.803Z,99471.12
2019-03-05T02:02:41.637Z,99470.75
2019-03-05T02:03:48.812Z,99468.23
2019-03-05T02:04:55.986Z,99469.47
2019-03-05T02:06:02.997Z,99469.11
2019-03-05T02:07:09.751Z,99471.61
2019-03-05T02:08:16.481Z,99462.78
2019-03-05T02:09:23.259Z,99464.95
2019-03-05T02:10:30.404Z,99470.38
2019-03-05T02:11:37.530Z,99472.55
2019-03-05T02:12:44.194Z,99470.83
2019-03-05T02:13:51.315Z,99469.59
2019-03-05T02:14:58.027Z,99469.55
2019-03-05T02:16:04.689Z,99466.56
2019-03-05T02:17:11.560Z,99475.59
2019-03-05T02:18:22.066Z,99467.54
2019-03-05T02:19:47.562Z,99467.54
2019-03-05T02:20:54.252Z,99473.86
2019-03-05T02:22:01.245Z,99474.64
2019-03-05T02:23:26.780Z,99469.14
2019-03-05T02:25:14.791Z,99475.13
2019-03-05T02:27:22.236Z,99477.72
2019-03-05T02:28:46.368Z,99484.91
2019-03-05T02:31:02.310Z,99484.95
2019-03-05T02:33:32.995Z,99483.75
2019-03-05T02:35:47.100Z,99490.16
2019-03-05T02:38:05.982Z,99483.45
2019-03-05T02:39:47.979Z,99489.45
2019-03-05T02:41:32.700Z,99483.16
2019-03-05T02:43:15.605Z,99489.48
2019-03-05T02:45:10.220Z,99490.23
2019-03-05T02:47:05.281Z,99489.82
2019-03-05T02:49:10.968Z,99488.95
2019-03-05T02:51:15.371Z,99497.41
2019-03-05T02:53:05.575Z,99496.38
2019-03-05T02:54:59.586Z,99489.27
2019-03-05T02:56:38.725Z,99495.70
2019-03-05T02:57:42.833Z,99490.72
2019-03-05T02:58:46.941Z,99489.08
2019-03-05T02:59:53.661Z,99490.84
2019-03-05T03:01:18.367Z,99493.00
2019-03-05T03:02:43.875Z,99487.55
2019-03-05T03:03:53.889Z,99484.25
2019-03-05T03:05:37.975Z,99485.71
2019-03-05T03:06:44.646Z,99481.56
2019-03-05T03:07:51.329Z,99482.91
2019-03-05T03:10:09.445Z,99475.31
2019-03-05T03:11:16.439Z,99488.41
2019-03-05T03:12:23.235Z,99481.67
2019-03-05T03:13:30.286Z,99484.70
2019-03-05T03:14:36.968Z,99485.18
2019-03-05T03:15:43.695Z,99490.27
2019-03-05T03:16:51.031Z,99486.45
2019-03-05T03:17:57.708Z,99483.91
2019-03-05T03:19:04.623Z,99486.08
2019-03-05T03:20:13.098Z,99481.92
2019-03-05T03:21:19.938Z,99484.05
2019-03-05T03:22:26.607Z,99488.28
2019-03-05T03:23:33.348Z,99490.34
2019-03-05T03:24:39.989Z,99491.69
2019-03-05T03:25:46.639Z,99489.63
2019-03-05T03:26:53.700Z,99488.39
2019-03-05T03:28:00.728Z,99488.39
2019-03-05T03:29:07.476Z,99491.37
2019-03-05T03:30:16.890Z,99482.06
2019-03-05T03:31:23.604Z,99483.34
2019-03-05T03:32:30.637Z,99492.69
2019-03-05T03:33:37.545Z,99496.05
2019-03-05T03:34:44.295Z,99495.20
2019-03-05T03:35:51.676Z,99500.24
2019-03-05T03:36:58.634Z,99502.00
2019-03-05T03:38:05.684Z,99499.87
2019-03-05T03:39:12.480Z,99502.82
2019-03-05T03:40:23.840Z,99501.14
2019-03-05T03:41:31.541Z,99504.98
2019-03-05T03:42:38.611Z,99499.97
2019-03-05T03:43:45.288Z,99505.05
2019-03-05T03:44:52.879Z,99506.70
2019-03-05T03:46:00.217Z,99507.08
2019-03-05T03:47:06.954Z,99506.22
2019-03-05T03:48:14.092Z,99506.64
2019-03-05T03:49:20.789Z,99507.49
2019-03-05T03:50:27.871Z,99504.16
2019-03-05T03:51:35.012Z,99507.12
2019-03-05T03:52:42.350Z,99503.72
2019-03-05T03:53:49.037Z,99508.80
2019-03-05T03:54:55.700Z,99510.04
2019-03-05T03:56:02.549Z,99508.73
2019-03-05T03:57:09.604Z,99512.09
2019-03-05T03:58:16.745Z,99511.27
2019-03-05T03:59:24.074Z,99512.72
2019-03-05T04:00:30.840Z,99509.39
2019-03-05T04:01:37.531Z,99512.38
2019-03-05T04:02:44.190Z,99509.11
2019-03-05T04:03:50.887Z,99511.69
2019-03-05T04:04:57.559Z,99510.77
2019-03-05T04:06:04.315Z,99515.37
2019-03-05T04:07:11.466Z,99518.39
2019-03-05T04:08:18.481Z,99524.38
2019-03-05T04:09:25.187Z,99521.34
2019-03-05T04:10:32.231Z,99520.90
2019-03-05T04:11:38.979Z,99518.73
2019-03-05T04:12:46.156Z,99523.38
2019-03-05T04:13:52.820Z,99517.70
2019-03-05T04:14:59.814Z,99524.44
2019-03-05T04:16:06.527Z,99526.50
2019-03-05T04:17:13.200Z,99525.19
2019-03-05T04:18:20.642Z,99524.67
2019-03-05T04:19:31.061Z,99527.66
2019-03-05T04:20:48.103Z,99530.58
2019-03-05T04:21:54.788Z,99528.86
2019-03-05T04:23:01.855Z,99527.17
2019-03-05T04:24:08.628Z,99530.13
2019-03-05T04:25:15.357Z,99533.09
2019-03-05T04:26:22.354Z,99528.86
2019-03-05T04:27:29.035Z,99533.05
2019-03-05T04:28:36.439Z,99529.23
2019-03-05T04:29:43.098Z,99532.23
2019-03-05T04:30:50.175Z,99532.57
2019-03-05T04:31:56.886Z,99537.25
2019-03-05T04:33:03.654Z,99534.77
2019-03-05T04:34:10.899Z,99533.95
2019-03-05T04:35:17.942Z,99543.70
2019-03-05T04:36:24.598Z,99544.64
2019-03-05T04:37:31.654Z,99545.60
2019-03-05T04:38:38.346Z,99546.13
2019-03-05T04:39:45.697Z,99550.00
2019-03-05T04:40:52.604Z,99553.44
2019-03-05T04:41:59.348Z,99545.81
2019-03-05T04:43:06.450Z,99554.30
2019-03-05T04:44:15.060Z,99556.45
2019-03-05T04:45:39.621Z,99566.63
2019-03-05T04:46:50.251Z,99550.66
2019-03-05T04:47:57.321Z,99544.33
2019-03-05T04:49:32.143Z,99544.53
2019-03-05T04:50:49.495Z,99546.80
2019-03-05T04:51:59.304Z,99547.66
2019-03-05T04:53:06.006Z,99552.39
2019-03-05T04:54:12.704Z,99563.06
2019-03-05T04:55:20.024Z,99555.82
2019-03-05T04:56:27.262Z,99566.02
2019-03-05T04:57:34.031Z,99571.95
2019-03-05T04:58:41.669Z,99569.29
2019-03-05T04:59:48.325Z,99574.75
2019-03-05T05:00:54.963Z,99568.43
2019-03-05T05:02:01.698Z,99558.23
2019-03-05T05:03:08.386Z,99566.63
2019-03-05T05:04:15.460Z,99573.32
2019-03-05T05:05:22.545Z,99576.52
2019-03-05T05:06:29.599Z,99569.94
2019-03-05T05:07:36.400Z,99569.38
2019-03-05T05:08:43.387Z,99574.95
2019-03-05T05:09:50.046Z,99586.26
2019-03-05T05:10:57.166Z,99582.78
2019-03-05T05:12:03.912Z,99581.84
2019-03-05T05:13:10.956Z,99575.19
2019-03-05T05:14:18.424Z,99564.48
2019-03-05T05:15:31.049Z,99571.18
2019-03-05T05:16:38.582Z,99571.53
2019-03-05T05:17:45.493Z,99563.04
2019-03-05T05:18:52.330Z,99557.04
2019-03-05T05:19:59.306Z,99550.66
2019-03-05T05:21:06.332Z,99567.37
2019-03-05T05:22:13.396Z,99572.93
2019-03-05T05:23:20.584Z,99567.37
2019-03-05T05:24:27.596Z,99560.21
2019-03-05T05:25:34.655Z,99555.61
2019-03-05T05:26:42.041Z,99553.22
2019-03-05T05:27:48.714Z,99572.15
2019-03-05T05:28:55.945Z,99567.84
2019-03-05T05:30:02.641Z,99572.93
2019-03-05T05:31:09.479Z,99570.16
2019-03-05T05:32:16.545Z,99576.11
2019-03-05T05:33:23.289Z,99573.17
2019-03-05T05:34:30.344Z,99575.69
2019-03-05T05:35:37.422Z,99569.89
2019-03-05T05:36:44.781Z,99573.25
2019-03-05T05:37:51.489Z,99579.23
2019-03-05T05:38:58.151Z,99575.02
2019-03-05T05:40:28.832Z,99574.62
2019-03-05T05:41:35.845Z,99569.23
2019-03-05T05:42:42.537Z,99569.27
2019-03-05T05:43:49.331Z,99581.95
2019-03-05T05:44:56.353Z,99577.73
2019-03-05T05:46:03.734Z,99576.47
2019-03-05T05:47:10.469Z,99568.39
2019-03-05T05:48:17.863Z,99575.91
2019-03-05T05:49:24.607Z,99580.01
2019-03-05T05:50:31.313Z,99580.75
2019-03-05T05:51:38.071Z,99584.81
2019-03-05T05:52:45.470Z,99587.70
2019-03-05T05:53:52.151Z,99586.36
2019-03-05T05:54:59.270Z,99586.76
2019-03-05T05:56:06.014Z,99585.00
2019-03-05T05:57:13.720Z,99584.91
2019-03-05T05:58:21.081Z,99578.55
2019-03-05T05:59:28.196Z,99580.25
2019-03-05T06:00:36.615Z,99576.84
2019-03-05T06:01:43.261Z,99590.31
2019-03-05T06:02:50.792Z,99587.38
2019-03-05T06:03:57.461Z,99591.56
2019-03-05T06:05:05.070Z,99580.95
2019-03-05T06:06:11.766Z,99583.95
2019-03-05T06:07:18.558Z,99587.76
2019-03-05T06:08:25.388Z,99587.76
2019-03-05T06:09:32.065Z,99591.09
2019-03-05T06:10:39.134Z,99592.78
2019-03-05T06:11:46.247Z,99587.69
2019-03-05T06:12:52.983Z,99598.29
2019-03-05T06:13:59.639Z,99593.70
2019-03-05T06:15:07.278Z,99585.30
2019-03-05T06:16:14.009Z,99592.48
2019-03-05T06:17:22.022Z,99581.56
2019-03-05T06:18:29.427Z,99597.68
2019-03-05T06:19:36.148Z,99591.75
2019-03-05T06:20:43.172Z,99587.03
2019-03-05T06:21:50.133Z,99584.92
2019-03-05T06:22:56.859Z,99587.54
2019-03-05T06:24:04.183Z,99591.34
2019-03-05T06:25:12.170Z,99596.41
2019-03-05T06:26:19.301Z,99588.81
2019-03-05T06:27:26.851Z,99590.08
2019-03-05T06:28:33.577Z,99588.00
2019-03-05T06:29:40.668Z,99588.00
2019-03-05T06:30:47.344Z,99586.73
2019-03-05T06:31:54.371Z,99586.66
2019-03-05T06:33:01.834Z,99591.27
2019-03-05T06:34:08.645Z,99588.73
2019-03-05T06:35:16.285Z,99595.05
2019-03-05T06:36:23.026Z,99592.10
2019-03-05T06:37:30.046Z,99605.63
2019-03-05T06:38:37.283Z,99604.36
2019-03-05T06:39:43.981Z,99609.89
2019-03-05T06:40:50.701Z,99606.11
2019-03-05T06:41:58.048Z,99609.94
2019-03-05T06:43:04.779Z,99613.28
2019-03-05T06:44:11.513Z,99609.89
2019-03-05T06:45:18.942Z,99615.33
2019-03-05T06:46:26.131Z,99615.30
2019-03-05T06:47:33.189Z,99613.55
2019-03-05T06:48:40.280Z,99615.59
2019-03-05T06:49:47.104Z,99613.42
2019-03-05T06:50:54.191Z,99619.41
2019-03-05T06:52:01.255Z,99621.11
2019-03-05T06:53:08.459Z,99623.23
2019-03-05T06:54:15.522Z,99619.83
2019-03-05T06:55:22.499Z,99625.38
2019-03-05T06:56:29.224Z,99623.27
2019-03-05T06:57:36.034Z,99626.73
2019-03-05T06:58:42.736Z,99625.91
2019-03-05T06:59:49.627Z,99634.36
2019-03-05T07:00:56.763Z,99633.53
2019-03-05T07:02:03.969Z,99639.06
2019-03-05T07:03:10.957Z,99634.80
2019-03-05T07:04:17.939Z,99638.56
2019-03-05T07:06:20.170Z,99638.92
2019-03-05T07:07:29.917Z,99642.25
2019-03-05T07:08:39.110Z,99642.69
2019-03-05T07:10:34.063Z,99645.66
2019-03-05T07:12:12.016Z,99648.20
2019-03-05T07:13:22.125Z,99649.41
2019-03-05T07:15:21.742Z,99651.09
2019-03-05T07:16:40.135Z,99647.30
2019-03-05T07:17:53.120Z,99658.17
2019-03-05T07:19:35.508Z,99659.81
2019-03-05T07:21:16.753Z,99665.30
2019-03-05T07:22:45.165Z,99660.59
2019-03-05T07:24:51.082Z,99666.08
2019-03-05T07:25:58.053Z,99667.38
2019-03-05T07:27:04.898Z,99668.62
2019-03-05T07:28:11.589Z,99665.57
2019-03-05T07:29:19.048Z,99675.59
2019-03-05T07:30:27.669Z,99672.55
2019-03-05T07:31:34.386Z,99674.94
2019-03-05T07:32:41.467Z,99671.89
2019-03-05T07:33:48.120Z,99679.81
2019-03-05T07:34:54.847Z,99683.57
2019-03-05T07:36:01.590Z,99686.09
2019-03-05T07:37:11.022Z,99687.38
2019-03-05T07:38:18.071Z,99692.04
2019-03-05T07:39:25.620Z,99697.06
2019-03-05T07:40:32.928Z,99696.73
2019-03-05T07:41:39.658Z,99700.92
2019-03-05T07:42:46.360Z,99703.87
2019-03-05T07:43:53.084Z,99709.75
2019-03-05T07:45:00.098Z,99710.60
2019-03-05T07:46:07.239Z,99708.92
2019-03-05T07:47:13.981Z,99708.92
2019-03-05T07:48:20.975Z,99708.38
2019-03-05T07:49:27.648Z,99711.23
2019-03-05T07:50:34.404Z,99720.88
2019-03-05T07:51:41.544Z,99715.30
2019-03-05T07:52:48.272Z,99710.23
2019-03-05T07:53:55.333Z,99717.80
2019-03-05T07:55:12.946Z,99722.41
2019-03-05T07:56:10.685Z,99720.31
2019-03-05T07:57:17.411Z,99723.20
2019-03-05T07:58:25.920Z,99723.60
2019-03-05T07:59:32.633Z,99719.79
2019-03-05T08:00:39.867Z,99723.13
2019-03-05T08:01:46.811Z,99730.31
2019-03-05T08:02:53.522Z,99727.80
2019-03-05T08:04:00.586Z,99727.35
2019-03-05T08:05:09.537Z,99737.92
2019-03-05T08:06:16.450Z,99739.22
2019-03-05T08:07:23.978Z,99741.31
2019-03-05T08:09:42.024Z,99735.38
2019-03-05T08:10:48.739Z,99747.15
2019-03-05T08:11:56.035Z,99747.41
2019-03-05T08:13:32.188Z,99747.02
2019-03-05T08:14:53.452Z,99747.84
2019-03-05T08:16:29.366Z,99751.65
2019-03-05T08:17:36.466Z,99759.70
2019-03-05T08:18:43.561Z,99762.24
2019-03-05T08:19:51.028Z,99757.12
2019-03-05T08:20:58.129Z,99763.34
2019-03-05T08:22:08.685Z,99761.62
2019-03-05T08:23:15.054Z,99767.45
2019-03-05T08:24:22.210Z,99769.91
2019-03-05T08:25:29.313Z,99774.48
2019-03-05T08:26:35.987Z,99769.80
2019-03-05T08:27:42.647Z,99768.97
2019-03-05T08:28:49.997Z,99768.53
2019-03-05T08:29:57.400Z,99774.39
2019-03-05T08:31:04.168Z,99784.05
2019-03-05T08:32:11.224Z,99784.47
2019-03-05T08:33:18.280Z,99783.09
2019-03-05T08:34:25.298Z,99788.92
2019-03-05T08:35:32.096Z,99789.73
2019-03-05T08:36:39.341Z,99788.44
2019-03-05T08:37:46.046Z,99791.76
2019-03-05T08:38:52.805Z,99796.76
2019-03-05T08:39:59.493Z,99792.04
2019-03-05T08:41:06.497Z,99793.14
2019-03-05T08:42:13.180Z,99795.94
2019-03-05T08:43:20.176Z,99800.02
2019-03-05T08:44:27.215Z,99801.52
2019-03-05T08:45:34.097Z,99802.28
2019-03-05T08:46:41.132Z,99795.81
2019-03-05T08:47:48.076Z,99803.06
2019-03-05T08:48:54.833Z,99804.66
2019-03-05T08:50:01.530Z,99807.64
2019-03-05T08:51:08.192Z,99804.71
2019-03-05T08:52:14.876Z,99805.13
2019-03-05T08:53:22.116Z,99809.33
2019-03-05T08:54:28.800Z,99812.08
2019-03-05T08:55:35.935Z,99813.70
2019-03-05T08:56:42.658Z,99811.93
2019-03-05T08:57:49.366Z,99810.57
2019-03-05T08:58:56.035Z,99813.41
2019-03-05T09:00:02.671Z,99811.19
2019-03-05T09:01:10.088Z,99815.42
2019-03-05T09:02:16.740Z,99813.23
2019-03-05T09:03:23.464Z,99812.66
2019-03-05T09:04:30.096Z,99815.11
2019-03-05T09:05:37.124Z,99814.92
2019-03-05T09:06:43.850Z,99814.90
2019-03-05T09:07:51.215Z,99819.35
2019-03-05T09:08:57.946Z,99820.37
2019-03-05T09:10:06.059Z,99820.97
2019-03-05T09:11:13.054Z,99824.72
2019-03-05T09:12:20.165Z,99829.84
2019-03-05T09:13:32.602Z,99825.96
2019-03-05T09:14:35.401Z,99836.88
2019-03-05T09:15:42.089Z,99838.22
2019-03-05T09:16:49.254Z,99835.88
2019-03-05T09:17:56.331Z,99830.69
2019-03-05T09:19:03.011Z,99828.00
2019-03-05T09:20:12.661Z,99827.43
2019-03-05T09:21:20.109Z,99839.46
2019-03-05T09:22:26.830Z,99840.16
2019-03-05T09:23:33.865Z,99836.47
2019-03-05T09:24:40.917Z,99839.11
2019-03-05T09:25:47.927Z,99841.50
2019-03-05T09:26:55.325Z,99840.92
2019-03-05T09:28:02.067Z,99850.22
2019-03-05T09:29:08.775Z,99842.48
2019-03-05T09:30:20.626Z,99845.63
2019-03-05T09:31:27.308Z,99851.88
2019-03-05T09:32:34.036Z,99849.89
2019-03-05T09:33:40.681Z,99841.14
2019-03-05T09:34:47.719Z,99847.92
2019-03-05T09:35:54.440Z,99842.03
2019-03-05T09:37:01.205Z,99845.44
2019-03-05T09:38:08.074Z,99839.74
2019-03-05T09:39:15.990Z,99844.03
2019-03-05T09:40:24.137Z,99841.46
2019-03-05T09:41:30.850Z,99844.45
2019-03-05T09:42:40.229Z,99846.08
2019-03-05T09:43:47.486Z,99852.06
2019-03-05T09:44:54.542Z,99849.92
2019-03-05T09:46:01.461Z,99851.20
2019-03-05T09:47:08.775Z,99855.81
2019-03-05T09:48:16.030Z,99854.98
2019-03-05T09:49:23.036Z,99850.59
2019-03-05T09:50:31.985Z,99856.39
2019-03-05T09:51:38.394Z,99858.94
2019-03-05T09:52:54.497Z,99856.99
2019-03-05T09:53:54.118Z,99861.55
2019-03-05T09:55:00.930Z,99855.63
2019-03-05T09:56:07.842Z,99860.27
2019-03-05T09:57:14.623Z,99861.93
2019-03-05T09:58:21.328Z,99868.20
2019-03-05T09:59:28.066Z,99866.00
2019-03-05T10:00:35.223Z,99873.90
2019-03-05T10:01:41.861Z,99872.72
2019-03-05T10:02:48.794Z,99871.09
2019-03-05T10:03:56.457Z,99871.03
2019-03-05T10:05:03.194Z,99872.66
2019-03-05T10:06:09.916Z,99876.89
2019-03-05T10:07:19.185Z,99878.70
2019-03-05T10:08:32.566Z,99886.34
2019-03-05T10:09:34.079Z,99882.46
2019-03-05T10:10:40.996Z,99889.63
2019-03-05T10:11:47.740Z,99883.25
2019-03-05T10:12:59.028Z,99883.25
2019-03-05T10:14:03.374Z,99891.31
2019-03-05T10:15:14.329Z,99895.89
2019-03-05T10:16:22.048Z,99895.00
2019-03-05T10:17:37.668Z,99894.97
2019-03-05T10:18:39.308Z,99894.20
2019-03-05T10:19:45.926Z,99892.88
2019-03-05T10:20:52.998Z,99887.30
2019-03-05T10:21:59.820Z,99890.29
2019-03-05T10:23:07.126Z,99892.23
2019-03-05T10:24:14.117Z,99895.92
2019-03-05T10:25:22.811Z,99892.86
2019-03-05T10:26:30.231Z,99892.66
2019-03-05T10:27:37.296Z,99901.14
2019-03-05T10:28:44.690Z,99893.63
2019-03-05T10:29:52.427Z,99895.00
2019-03-05T10:30:59.327Z,99892.45
2019-03-05T10:32:06.165Z,99896.91
2019-03-05T10:33:15.408Z,99899.77
2019-03-05T10:34:22.069Z,99898.50
2019-03-05T10:35:29.695Z,99889.48
2019-03-05T10:36:36.469Z,99896.81
2019-03-05T10:37:43.104Z,99902.16
2019-03-05T10:38:57.376Z,99898.29
2019-03-05T10:39:58.926Z,99904.94
2019-03-05T10:41:06.067Z,99905.62
2019-03-05T10:42:12.766Z,99901.77
2019-03-05T10:43:19.650Z,99896.08
2019-03-05T10:44:26.386Z,99903.81
2019-03-05T10:45:33.503Z,99899.68
2019-03-05T10:46:40.334Z,99904.77
2019-03-05T10:47:48.922Z,99906.88
2019-03-05T10:48:56.445Z,99914.19
2019-03-05T10:50:14.834Z,99907.39
2019-03-05T10:51:13.532Z,99914.63
2019-03-05T10:52:20.253Z,99911.31
2019-03-05T10:53:27.060Z,99914.84
2019-03-05T10:54:33.733Z,99914.48
2019-03-05T10:55:41.212Z,99913.96
2019-03-05T10:56:48.386Z,99914.27
2019-03-05T10:57:55.235Z,99922.52
2019-03-05T10:59:02.210Z,99922.88
2019-03-05T11:00:15.357Z,99924.81
2019-03-05T11:01:22.069Z,99931.50
2019-03-05T11:02:29.200Z,99926.85
2019-03-05T11:03:36.256Z,99927.78
2019-03-05T11:04:45.923Z,99925.81
2019-03-05T11:05:52.906Z,99929.05
2019-03-05T11:06:59.970Z,99928.27
2019-03-05T11:08:08.048Z,99922.43
2019-03-05T11:09:16.683Z,99932.45
2019-03-05T11:10:24.083Z,99925.73
2019-03-05T11:11:31.187Z,99927.05
2019-03-05T11:12:39.260Z,99939.15
2019-03-05T11:13:46.324Z,99934.47
2019-03-05T11:14:53.449Z,99934.67
2019-03-05T11:16:00.368Z,99936.62
2019-03-05T11:17:07.083Z,99943.20
2019-03-05T11:18:13.760Z,99941.30
2019-03-05T11:19:20.438Z,99944.83
2019-03-05T11:20:27.676Z,99936.52
2019-03-05T11:21:34.936Z,99948.06
2019-03-05T11:22:42.337Z,99941.84
2019-03-05T11:23:49.512Z,99939.87
2019-03-05T11:24:56.286Z,99946.14
2019-03-05T11:26:04.170Z,99945.74
2019-03-05T11:27:11.127Z,99948.22
2019-03-05T11:28:18.352Z,99946.34
2019-03-05T11:29:25.460Z,99949.84
2019-03-05T11:30:36.349Z,99955.05
2019-03-05T11:31:41.931Z,99956.16
2019-03-05T11:32:49.119Z,99962.58
2019-03-05T11:33:56.194Z,99963.09
2019-03-05T11:35:02.875Z,99962.61
2019-03-05T11:36:10.152Z,99965.72
2019-03-05T11:37:17.879Z,99963.75
2019-03-05T11:38:24.950Z,99967.30
2019-03-05T11:39:32.666Z,99967.48
2019-03-05T11:40:39.979Z,99963.20
2019-03-05T11:41:46.788Z,99966.30
2019-03-05T11:42:54.064Z,99966.34
2019-03-05T11:44:01.013Z,99964.72
2019-03-05T11:45:12.757Z,99970.27
2019-03-05T11:46:19.936Z,99970.89
2019-03-05T11:47:27.002Z,99969.63
2019-03-05T11:48:36.098Z,99970.64
2019-03-05T11:49:42.961Z,99975.96
2019-03-05T11:50:51.558Z,99976.66
2019-03-05T11:51:58.281Z,99975.59
2019-03-05T11:53:05.654Z,99981.77
2019-03-05T11:54:12.734Z,99986.30
2019-03-05T11:55:20.849Z,99981.89
2019-03-05T11:56:28.109Z,99976.66
2019-03-05T11:57:35.320Z,99980.61
2019-03-05T11:58:42.467Z,99984.34
2019-03-05T11:59:49.945Z,99980.33
2019-03-05T12:01:01.817Z,99982.39
2019-03-05T12:02:09.939Z,99979.76
2019-03-05T12:03:18.031Z,99985.92
2019-03-05T12:04:25.640Z,99985.70
2019-03-05T12:05:32.768Z,99988.83
2019-03-05T12:06:39.488Z,99992.86
2019-03-05T12:07:46.729Z,100000.70
2019-03-05T12:08:53.509Z,100007.47
2019-03-05T12:10:00.469Z,100002.95
2019-03-05T12:11:07.378Z,100002.44
2019-03-05T12:12:14.523Z,100001.23
2019-03-05T12:13:21.799Z,100002.39
2019-03-05T12:14:28.542Z,100006.27
2019-03-05T12:15:35.796Z,100012.40
2019-03-05T12:16:42.513Z,100002.63
2019-03-05T12:17:49.698Z,100010.17
2019-03-05T12:18:56.443Z,100007.38
2019-03-05T12:20:03.240Z,100003.63
2019-03-05T12:21:10.126Z,100012.24
2019-03-05T12:22:17.432Z,100012.70
2019-03-05T12:23:24.161Z,100015.30
2019-03-05T12:24:31.312Z,100014.06
2019-03-05T12:25:39.957Z,100012.98
2019-03-05T12:26:47.691Z,100012.19
2019-03-05T12:27:54.769Z,100009.63
2019-03-05T12:29:01.535Z,100010.56
2019-03-05T12:30:10.970Z,100013.02
2019-03-05T12:31:18.151Z,100018.77
2019-03-05T12:32:25.306Z,100013.66
2019-03-05T12:33:32.682Z,100015.20
2019-03-05T12:34:40.056Z,100015.19
2019-03-05T12:35:47.258Z,100016.22
2019-03-05T12:36:54.530Z,100008.66
2019-03-05T12:38:01.263Z,100016.94
2019-03-05T12:39:09.964Z,100017.19
2019-03-05T12:40:17.743Z,100022.96
2019-03-05T12:41:25.218Z,100017.11
2019-03-05T12:42:32.812Z,100021.40
2019-03-05T12:43:39.904Z,100018.88
2019-03-05T12:44:48.974Z,100025.62
2019-03-05T12:45:55.916Z,100025.28
2019-03-05T12:47:03.355Z,100022.75
2019-03-05T12:48:10.861Z,100024.52
2019-03-05T12:49:17.542Z,100025.64
2019-03-05T12:50:24.656Z,100022.92
2019-03-05T12:51:31.703Z,100025.78
2019-03-05T12:52:38.468Z,100024.78
2019-03-05T12:53:45.272Z,100022.60
2019-03-05T12:54:52.307Z,100019.07
2019-03-05T12:55:59.085Z,100021.29
2019-03-05T12:57:06.139Z,100015.45
2019-03-05T12:58:13.465Z,100017.84
2019-03-05T12:59:20.169Z,100021.60
2019-03-05T13:00:28.839Z,100019.21
2019-03-05T13:01:35.987Z,100031.38
2019-03-05T13:02:42.934Z,100030.84
2019-03-05T13:03:49.957Z,100033.03
2019-03-05T13:04:57.126Z,100031.69
2019-03-05T13:06:03.914Z,100029.30
2019-03-05T13:07:14.225Z,100035.60
2019-03-05T13:08:19.360Z,100034.30
2019-03-05T13:09:26.445Z,100040.77
2019-03-05T13:10:35.935Z,100033.41
2019-03-05T13:11:42.346Z,100040.44
2019-03-05T13:12:49.193Z,100037.19
2019-03-05T13:14:05.961Z,100042.80
2019-03-05T13:15:05.099Z,100043.05
2019-03-05T13:16:13.931Z,100047.63
2019-03-05T13:17:21.254Z,100055.95
2019-03-05T13:18:30.958Z,100052.08
2019-03-05T13:19:38.771Z,100053.77
2019-03-05T13:20:46.270Z,100051.75
2019-03-05T13:21:53.106Z,100057.97
2019-03-05T13:23:00.423Z,100056.41
2019-03-05T13:24:10.073Z,100060.53
2019-03-05T13:25:17.744Z,100059.80
2019-03-05T13:26:24.519Z,100056.95
2019-03-05T13:27:31.604Z,100054.77
2019-03-05T13:28:40.541Z,100060.41
2019-03-05T13:29:47.167Z,100058.14
2019-03-05T13:30:54.270Z,100061.81
2019-03-05T13:32:01.479Z,100059.30
2019-03-05T13:33:08.347Z,100060.91
2019-03-05T13:34:17.842Z,100061.90
2019-03-05T13:35:25.465Z,100058.80
2019-03-05T13:36:32.943Z,100062.80
2019-03-05T13:37:39.936Z,100064.94
2019-03-05T13:38:47.112Z,100068.36
2019-03-05T13:39:54.983Z,100071.13
2019-03-05T13:41:02.426Z,100067.42
2019-03-05T13:42:09.118Z,100079.06
2019-03-05T13:43:17.350Z,100076.66
2019-03-05T13:44:35.688Z,100075.96
2019-03-05T13:45:49.207Z,100070.25
2019-03-05T13:46:51.903Z,100078.36
2019-03-05T13:48:10.238Z,100075.41
2019-03-05T13:50:04.562Z,100073.15
2019-03-05T13:51:59.638Z,100072.78
2019-03-05T13:54:00.060Z,100078.93